createdAt,value
2023-03-13T00:00:58.875Z,1001.03
2023-03-13T00:01:58.938Z,1001.08
2023-03-13T00:02:58.866Z,1001.03
2023-03-13T00:03:59.039Z,1001.06
2023-03-13T00:04:58.908Z,1001.01
2023-03-13T00:05:58.874Z,1001.02
2023-03-13T00:06:58.886Z,1001.08
2023-03-13T00:07:58.827Z,1001.09
2023-03-13T00:08:58.809Z,1001.07
2023-03-13T00:09:58.791Z,1001.02
2023-03-13T00:10:58.774Z,1001.08
2023-03-13T00:11:58.763Z,1001.01
2023-03-13T00:12:58.754Z,1001.16
2023-03-13T00:13:58.749Z,1001.09
2023-03-13T00:14:58.723Z,1001.03
2023-03-13T00:15:58.708Z,1001.00
2023-03-13T00:16:58.708Z,1001.01
2023-03-13T00:17:58.709Z,1000.99
2023-03-13T00:18:58.684Z,1000.98
2023-03-13T00:19:58.662Z,1000.99
2023-03-13T00:20:58.653Z,1000.92
2023-03-13T00:21:58.654Z,1000.88
2023-03-13T00:22:58.679Z,1000.89
2023-03-13T00:23:58.638Z,1000.91
2023-03-13T00:24:58.599Z,1000.88
2023-03-13T00:25:58.598Z,1000.91
2023-03-13T00:26:58.592Z,1000.91
2023-03-13T00:27:58.642Z,1000.89
2023-03-13T00:28:58.576Z,1000.93
2023-03-13T00:29:58.551Z,1000.93
2023-03-13T00:30:58.548Z,1000.92
2023-03-13T00:31:58.557Z,1000.93
2023-03-13T00:32:58.718Z,1000.88
2023-03-13T00:33:58.518Z,1000.85
2023-03-13T00:34:58.504Z,1000.86
2023-03-13T00:35:58.551Z,1000.87
2023-03-13T00:36:58.492Z,1000.84
2023-03-13T00:37:58.465Z,1000.85
2023-03-13T00:38:58.444Z,1000.82
2023-03-13T00:39:59.141Z,1000.83
2023-03-13T00:40:58.429Z,1000.83
2023-03-13T00:41:58.410Z,1000.77
2023-03-13T00:42:58.414Z,1000.81
2023-03-13T00:43:58.401Z,1000.80
2023-03-13T00:44:58.376Z,1000.73
2023-03-13T00:45:58.427Z,1000.73
2023-03-13T00:46:58.368Z,1000.69
2023-03-13T00:47:58.344Z,1000.71
2023-03-13T00:48:58.329Z,1000.72
2023-03-13T00:49:58.317Z,1000.72
2023-03-13T00:50:58.347Z,1000.66
2023-03-13T00:51:58.301Z,1000.65
2023-03-13T00:52:58.283Z,1000.67
2023-03-13T00:53:58.354Z,1000.62
2023-03-13T00:54:58.275Z,1000.55
2023-03-13T00:55:58.269Z,1000.60
2023-03-13T00:56:58.240Z,1000.54
2023-03-13T00:57:58.227Z,1000.54
2023-03-13T00:58:58.217Z,1000.58
2023-03-13T00:59:58.225Z,1000.55
2023-03-13T01:00:58.467Z,1000.57
2023-03-13T01:01:58.230Z,1000.58
2023-03-13T01:02:58.298Z,1000.51
2023-03-13T01:03:58.185Z,1000.52
2023-03-13T01:05:00.112Z,1000.47
2023-03-13T01:05:58.164Z,1000.55
2023-03-13T01:06:58.151Z,1000.56
2023-03-13T01:07:58.122Z,1000.55
2023-03-13T01:08:58.119Z,1000.54
2023-03-13T01:09:58.106Z,1000.50
2023-03-13T01:10:58.197Z,1000.57
2023-03-13T01:11:58.085Z,1000.52
2023-03-13T01:12:58.186Z,1000.52
2023-03-13T01:13:58.061Z,1000.52
2023-03-13T01:14:58.134Z,1000.54
2023-03-13T01:15:58.092Z,1000.49
2023-03-13T01:16:58.026Z,1000.44
2023-03-13T01:17:58.030Z,1000.46
2023-03-13T01:18:58.004Z,1000.53
2023-03-13T01:19:58.007Z,1000.49
2023-03-13T01:20:57.993Z,1000.47
2023-03-13T01:21:57.977Z,1000.47
2023-03-13T01:22:57.984Z,1000.47
2023-03-13T01:23:57.965Z,1000.45
2023-03-13T01:24:57.958Z,1000.47
2023-03-13T01:25:57.943Z,1000.45
2023-03-13T01:26:57.926Z,1000.43
2023-03-13T01:27:57.912Z,1000.45
2023-03-13T01:28:57.909Z,1000.49
2023-03-13T01:29:57.883Z,1000.46
2023-03-13T01:30:57.912Z,1000.50
2023-03-13T01:31:57.872Z,1000.50
2023-03-13T01:32:57.948Z,1000.48
2023-03-13T01:33:57.845Z,1000.53
2023-03-13T01:34:57.829Z,1000.50
2023-03-13T01:35:57.847Z,1000.50
2023-03-13T01:36:57.811Z,1000.54
2023-03-13T01:37:57.818Z,1000.52
2023-03-13T01:38:57.821Z,1000.54
2023-03-13T01:39:57.788Z,1000.54
2023-03-13T01:40:57.770Z,1000.47
2023-03-13T01:41:57.745Z,1000.46
2023-03-13T01:42:57.750Z,1000.44
2023-03-13T01:43:57.769Z,1000.46
2023-03-13T01:44:57.714Z,1000.44
2023-03-13T01:45:57.844Z,1000.41
2023-03-13T01:46:57.694Z,1000.38
2023-03-13T01:47:57.683Z,1000.36
2023-03-13T01:48:57.663Z,1000.33
2023-03-13T01:49:57.657Z,1000.31
2023-03-13T01:50:57.651Z,1000.28
2023-03-13T01:51:57.653Z,1000.27
2023-03-13T01:52:57.628Z,1000.27
2023-03-13T01:53:57.631Z,1000.32
2023-03-13T01:54:57.622Z,1000.30
2023-03-13T01:55:57.597Z,1000.26
2023-03-13T01:56:57.579Z,1000.26
2023-03-13T01:57:57.612Z,1000.25
2023-03-13T01:58:57.559Z,1000.21
2023-03-13T01:59:57.556Z,1000.22
2023-03-13T02:00:57.559Z,1000.21
2023-03-13T02:01:57.622Z,1000.24
2023-03-13T02:02:57.973Z,1000.20
2023-03-13T02:03:57.510Z,1000.17
2023-03-13T02:04:57.494Z,1000.15
2023-03-13T02:05:57.499Z,1000.13
2023-03-13T02:06:57.469Z,1000.18
2023-03-13T02:07:57.489Z,1000.15
2023-03-13T02:08:57.451Z,1000.13
2023-03-13T02:09:57.446Z,1000.11
2023-03-13T02:10:57.448Z,1000.16
2023-03-13T02:11:57.451Z,1000.11
2023-03-13T02:12:57.407Z,1000.11
2023-03-13T02:13:57.394Z,1000.08
2023-03-13T02:14:57.384Z,1000.03
2023-03-13T02:15:57.405Z,999.99
2023-03-13T02:16:57.467Z,999.96
2023-03-13T02:17:57.371Z,999.92
2023-03-13T02:18:57.336Z,999.96
2023-03-13T02:19:57.328Z,999.89
2023-03-13T02:20:57.330Z,999.86
2023-03-13T02:21:57.544Z,999.89
2023-03-13T02:22:57.293Z,999.88
2023-03-13T02:23:57.304Z,999.89
2023-03-13T02:24:57.271Z,999.84
2023-03-13T02:25:57.269Z,999.92
2023-03-13T02:26:57.270Z,999.87
2023-03-13T02:27:57.236Z,999.84
2023-03-13T02:28:57.225Z,999.83
2023-03-13T02:29:57.220Z,999.86
2023-03-13T02:30:57.271Z,999.85
2023-03-13T02:31:57.196Z,999.85
2023-03-13T02:32:57.252Z,999.84
2023-03-13T02:33:57.174Z,999.84
2023-03-13T02:34:57.175Z,999.77
2023-03-13T02:35:57.244Z,999.78
2023-03-13T02:36:57.140Z,999.77
2023-03-13T02:37:57.132Z,999.76
2023-03-13T02:38:57.115Z,999.78
2023-03-13T02:39:57.119Z,999.77
2023-03-13T02:40:57.093Z,999.74
2023-03-13T02:41:57.084Z,999.76
2023-03-13T02:42:57.104Z,999.71
2023-03-13T02:43:57.064Z,999.74
2023-03-13T02:44:57.050Z,999.75
2023-03-13T02:45:57.040Z,999.70
2023-03-13T02:46:57.164Z,999.67
2023-03-13T02:47:57.264Z,999.67
2023-03-13T02:48:57.089Z,999.64
2023-03-13T02:49:56.992Z,999.61
2023-03-13T02:50:56.989Z,999.65
2023-03-13T02:51:56.989Z,999.60
2023-03-13T02:52:56.978Z,999.59
2023-03-13T02:53:56.980Z,999.60
2023-03-13T02:54:56.943Z,999.54
2023-03-13T02:55:56.938Z,999.53
2023-03-13T02:56:56.924Z,999.53
2023-03-13T02:57:56.943Z,999.48
2023-03-13T02:58:56.917Z,999.49
2023-03-13T02:59:57.017Z,999.43
2023-03-13T03:00:56.952Z,999.45
2023-03-13T03:01:56.879Z,999.42
2023-03-13T03:02:56.860Z,999.40
2023-03-13T03:03:56.906Z,999.32
2023-03-13T03:04:57.021Z,999.39
2023-03-13T03:05:56.828Z,999.38
2023-03-13T03:06:56.814Z,999.30
2023-03-13T03:07:56.803Z,999.39
2023-03-13T03:08:56.817Z,999.32
2023-03-13T03:09:56.792Z,999.32
2023-03-13T03:10:56.775Z,999.28
2023-03-13T03:11:56.761Z,999.25
2023-03-13T03:12:56.783Z,999.24
2023-03-13T03:13:56.741Z,999.22
2023-03-13T03:14:56.742Z,999.13
2023-03-13T03:15:56.722Z,999.15
2023-03-13T03:16:57.686Z,999.09
2023-03-13T03:17:56.698Z,999.09
2023-03-13T03:18:56.700Z,999.03
2023-03-13T03:19:56.682Z,999.08
2023-03-13T03:20:56.659Z,999.06
2023-03-13T03:21:56.670Z,999.09
2023-03-13T03:22:56.652Z,999.11
2023-03-13T03:23:56.642Z,999.08
2023-03-13T03:24:56.627Z,999.14
2023-03-13T03:25:56.603Z,999.03
2023-03-13T03:26:56.626Z,999.09
2023-03-13T03:27:56.582Z,999.03
2023-03-13T03:28:56.583Z,999.03
2023-03-13T03:29:56.567Z,999.06
2023-03-13T03:30:56.570Z,999.07
2023-03-13T03:31:56.568Z,999.06
2023-03-13T03:32:56.628Z,999.06
2023-03-13T03:33:56.519Z,999.06
2023-03-13T03:34:56.498Z,999.03
2023-03-13T03:35:56.517Z,999.04
2023-03-13T03:36:56.501Z,999.04
2023-03-13T03:37:56.481Z,999.01
2023-03-13T03:38:56.452Z,998.98
2023-03-13T03:39:56.449Z,998.99
2023-03-13T03:40:56.431Z,998.97
2023-03-13T03:41:56.438Z,998.94
2023-03-13T03:42:56.424Z,998.95
2023-03-13T03:43:56.414Z,998.90
2023-03-13T03:44:56.397Z,998.93
2023-03-13T03:45:56.460Z,998.87
2023-03-13T03:46:56.513Z,998.85
2023-03-13T03:47:56.414Z,998.85
2023-03-13T03:48:56.368Z,998.83
2023-03-13T03:49:56.339Z,998.89
2023-03-13T03:50:56.323Z,998.84
2023-03-13T03:51:56.324Z,998.81
2023-03-13T03:52:56.312Z,998.84
2023-03-13T03:53:56.288Z,998.74
2023-03-13T03:54:56.281Z,998.69
2023-03-13T03:55:56.308Z,998.71
2023-03-13T03:56:56.292Z,998.74
2023-03-13T03:57:56.248Z,998.67
2023-03-13T03:58:56.242Z,998.68
2023-03-13T03:59:56.231Z,998.63
2023-03-13T04:00:56.235Z,998.64
2023-03-13T04:01:56.517Z,998.63
2023-03-13T04:02:56.358Z,998.60
2023-03-13T04:03:56.207Z,998.58
2023-03-13T04:04:56.175Z,998.62
2023-03-13T04:05:56.166Z,998.59
2023-03-13T04:06:56.168Z,998.56
2023-03-13T04:07:56.138Z,998.50
2023-03-13T04:08:56.155Z,998.44
2023-03-13T04:09:56.135Z,998.50
2023-03-13T04:10:56.121Z,998.48
2023-03-13T04:11:56.135Z,998.48
2023-03-13T04:12:56.087Z,998.40
2023-03-13T04:13:56.306Z,998.40
2023-03-13T04:14:56.063Z,998.42
2023-03-13T04:15:56.065Z,998.41
2023-03-13T04:16:56.116Z,998.41
2023-03-13T04:17:56.030Z,998.38
2023-03-13T04:18:56.036Z,998.35
2023-03-13T04:19:56.017Z,998.36
2023-03-13T04:20:56.048Z,998.36
2023-03-13T04:21:55.982Z,998.34
2023-03-13T04:22:55.974Z,998.35
2023-03-13T04:23:55.960Z,998.27
2023-03-13T04:24:55.990Z,998.30
2023-03-13T04:25:55.962Z,998.27
2023-03-13T04:26:55.946Z,998.28
2023-03-13T04:27:56.103Z,998.30
2023-03-13T04:28:55.985Z,998.34
2023-03-13T04:29:55.921Z,998.24
2023-03-13T04:30:55.936Z,998.22
2023-03-13T04:31:55.906Z,998.28
2023-03-13T04:32:55.981Z,998.19
2023-03-13T04:33:55.861Z,998.19
2023-03-13T04:34:55.993Z,998.16
2023-03-13T04:35:55.875Z,998.14
2023-03-13T04:36:55.819Z,998.10
2023-03-13T04:37:55.827Z,998.09
2023-03-13T04:38:55.809Z,998.08
2023-03-13T04:39:55.785Z,998.01
2023-03-13T04:40:55.776Z,998.04
2023-03-13T04:41:55.770Z,998.03
2023-03-13T04:42:55.758Z,998.06
2023-03-13T04:43:55.758Z,997.98
2023-03-13T04:44:55.753Z,997.96
2023-03-13T04:45:55.789Z,997.96
2023-03-13T04:46:55.757Z,997.91
2023-03-13T04:47:55.720Z,997.92
2023-03-13T04:48:55.694Z,997.93
2023-03-13T04:49:55.678Z,997.93
2023-03-13T04:50:55.689Z,997.93
2023-03-13T04:51:55.683Z,997.83
2023-03-13T04:52:55.646Z,997.84
2023-03-13T04:53:55.634Z,997.85
2023-03-13T04:54:55.622Z,997.80
2023-03-13T04:55:55.611Z,997.83
2023-03-13T04:56:55.601Z,997.78
2023-03-13T04:57:55.612Z,997.80
2023-03-13T04:58:55.579Z,997.72
2023-03-13T04:59:55.575Z,997.70
2023-03-13T05:00:55.698Z,997.70
2023-03-13T05:01:55.548Z,997.67
2023-03-13T05:02:55.538Z,997.63
2023-03-13T05:03:55.529Z,997.60
2023-03-13T05:04:55.537Z,997.64
2023-03-13T05:05:55.507Z,997.58
2023-03-13T05:06:55.577Z,997.63
2023-03-13T05:07:55.475Z,997.57
2023-03-13T05:08:55.469Z,997.60
2023-03-13T05:09:55.455Z,997.56
2023-03-13T05:10:55.463Z,997.49
2023-03-13T05:11:58.010Z,997.48
2023-03-13T05:12:55.426Z,997.41
2023-03-13T05:13:55.412Z,997.39
2023-03-13T05:14:55.405Z,997.33
2023-03-13T05:15:55.483Z,997.37
2023-03-13T05:16:55.408Z,997.29
2023-03-13T05:17:55.375Z,997.23
2023-03-13T05:18:55.360Z,997.23
2023-03-13T05:19:56.321Z,997.20
2023-03-13T05:20:55.354Z,997.18
2023-03-13T05:21:55.328Z,997.17
2023-03-13T05:22:55.336Z,997.16
2023-03-13T05:23:55.311Z,997.13
2023-03-13T05:24:55.322Z,997.18
2023-03-13T05:25:55.300Z,997.16
2023-03-13T05:26:55.282Z,997.13
2023-03-13T05:27:55.270Z,997.15
2023-03-13T05:28:55.283Z,997.13
2023-03-13T05:29:55.234Z,997.12
2023-03-13T05:30:55.368Z,997.17
2023-03-13T05:31:55.222Z,997.10
2023-03-13T05:32:55.275Z,997.09
2023-03-13T05:33:55.212Z,997.12
2023-03-13T05:34:55.187Z,997.04
2023-03-13T05:35:55.250Z,997.05
2023-03-13T05:36:55.168Z,997.05
2023-03-13T05:37:55.161Z,997.07
2023-03-13T05:38:55.186Z,996.98
2023-03-13T05:39:55.127Z,996.92
2023-03-13T05:40:55.118Z,996.96
2023-03-13T05:41:55.105Z,996.91
2023-03-13T05:42:55.096Z,996.85
2023-03-13T05:43:55.102Z,996.81
2023-03-13T05:44:55.085Z,996.87
2023-03-13T05:45:55.061Z,996.79
2023-03-13T05:46:55.051Z,996.79
2023-03-13T05:47:55.046Z,996.73
2023-03-13T05:48:55.035Z,996.66
2023-03-13T05:49:55.032Z,996.72
2023-03-13T05:50:55.206Z,996.74
2023-03-13T05:51:54.995Z,996.66
2023-03-13T05:52:54.987Z,996.65
2023-03-13T05:53:54.974Z,996.60
2023-03-13T05:54:55.000Z,996.61
2023-03-13T05:55:54.948Z,996.59
2023-03-13T05:56:54.948Z,996.54
2023-03-13T05:57:54.940Z,996.56
2023-03-13T05:58:54.921Z,996.51
2023-03-13T05:59:54.900Z,996.50
2023-03-13T06:00:54.889Z,996.47
2023-03-13T06:01:54.894Z,996.48
2023-03-13T06:02:54.884Z,996.45
2023-03-13T06:03:54.925Z,996.47
2023-03-13T06:04:54.967Z,996.44
2023-03-13T06:05:54.847Z,996.41
2023-03-13T06:06:54.856Z,996.32
2023-03-13T06:07:54.823Z,996.37
2023-03-13T06:08:54.799Z,996.37
2023-03-13T06:09:54.790Z,996.41
2023-03-13T06:10:55.277Z,996.36
2023-03-13T06:11:54.791Z,996.36
2023-03-13T06:12:54.766Z,996.32
2023-03-13T06:13:54.742Z,996.37
2023-03-13T06:14:55.722Z,996.36
2023-03-13T06:15:54.787Z,996.34
2023-03-13T06:16:54.959Z,996.34
2023-03-13T06:17:54.705Z,996.35
2023-03-13T06:18:54.692Z,996.36
2023-03-13T06:19:54.686Z,996.29
2023-03-13T06:20:54.666Z,996.31
2023-03-13T06:21:54.677Z,996.25
2023-03-13T06:22:54.645Z,996.23
2023-03-13T06:23:54.646Z,996.18
2023-03-13T06:24:54.621Z,996.14
2023-03-13T06:25:54.623Z,996.09
2023-03-13T06:26:54.651Z,996.09
2023-03-13T06:27:54.627Z,996.05
2023-03-13T06:28:54.581Z,996.10
2023-03-13T06:29:54.569Z,996.04
2023-03-13T06:30:54.555Z,996.06
2023-03-13T06:31:54.635Z,996.00
2023-03-13T06:32:54.687Z,996.00
2023-03-13T06:33:55.232Z,995.95
2023-03-13T06:34:54.526Z,995.94
2023-03-13T06:35:56.981Z,995.96
2023-03-13T06:36:54.497Z,995.89
2023-03-13T06:37:54.481Z,995.82
2023-03-13T06:38:54.490Z,995.80
2023-03-13T06:39:54.454Z,995.81
2023-03-13T06:40:54.509Z,995.84
2023-03-13T06:41:54.462Z,995.77
2023-03-13T06:42:54.453Z,995.78
2023-03-13T06:43:54.440Z,995.72
2023-03-13T06:44:54.402Z,995.68
2023-03-13T06:45:54.390Z,995.62
2023-03-13T06:46:54.454Z,995.70
2023-03-13T06:47:54.409Z,995.61
2023-03-13T06:48:54.366Z,995.58
2023-03-13T06:49:54.355Z,995.63
2023-03-13T06:50:54.343Z,995.50
2023-03-13T06:51:54.326Z,995.52
2023-03-13T06:52:55.240Z,995.47
2023-03-13T06:53:54.313Z,995.50
2023-03-13T06:54:54.295Z,995.48
2023-03-13T06:55:54.281Z,995.43
2023-03-13T06:56:54.280Z,995.42
2023-03-13T06:57:54.275Z,995.31
2023-03-13T06:58:54.264Z,995.29
2023-03-13T06:59:54.281Z,995.27
2023-03-13T07:00:54.259Z,995.25
2023-03-13T07:01:54.217Z,995.24
2023-03-13T07:02:54.218Z,995.26
2023-03-13T07:03:54.314Z,995.25
2023-03-13T07:04:54.272Z,995.20
2023-03-13T07:05:54.180Z,995.20
2023-03-13T07:06:54.162Z,995.24
2023-03-13T07:07:54.165Z,995.20
2023-03-13T07:08:54.139Z,995.25
2023-03-13T07:09:54.180Z,995.21
2023-03-13T07:10:54.121Z,995.20
2023-03-13T07:11:54.131Z,995.10
2023-03-13T07:12:54.121Z,995.14
2023-03-13T07:14:00.471Z,995.17
2023-03-13T07:14:55.099Z,995.13
2023-03-13T07:15:54.073Z,995.09
2023-03-13T07:16:54.263Z,995.02
2023-03-13T07:17:54.068Z,995.08
2023-03-13T07:18:54.040Z,995.10
2023-03-13T07:19:54.038Z,995.10
2023-03-13T07:20:54.033Z,995.09
2023-03-13T07:21:53.997Z,995.14
2023-03-13T07:22:54.005Z,995.22
2023-03-13T07:23:53.983Z,995.14
2023-03-13T07:24:54.018Z,995.12
2023-03-13T07:25:53.974Z,995.11
2023-03-13T07:27:06.001Z,995.06
2023-03-13T07:27:54.934Z,995.06
2023-03-13T07:28:54.754Z,994.97
2023-03-13T07:29:53.913Z,994.97
2023-03-13T07:30:53.973Z,995.04
2023-03-13T07:31:53.937Z,995.02
2023-03-13T07:32:53.967Z,995.00
2023-03-13T07:33:53.869Z,995.00
2023-03-13T07:34:53.861Z,994.97
2023-03-13T07:35:53.855Z,994.98
2023-03-13T07:36:53.864Z,994.93
2023-03-13T07:37:53.845Z,994.91
2023-03-13T07:38:53.810Z,994.93
2023-03-13T07:39:53.803Z,994.93
2023-03-13T07:40:53.811Z,994.95
2023-03-13T07:41:53.784Z,994.79
2023-03-13T07:42:53.970Z,994.81
2023-03-13T07:43:53.780Z,994.79
2023-03-13T07:44:53.753Z,994.83
2023-03-13T07:45:53.807Z,994.74
2023-03-13T07:46:53.765Z,994.75
2023-03-13T07:47:53.719Z,994.78
2023-03-13T07:48:53.703Z,994.77
2023-03-13T07:49:53.707Z,994.75
2023-03-13T07:50:53.680Z,994.76
2023-03-13T07:51:53.680Z,994.65
2023-03-13T07:52:53.720Z,994.58
2023-03-13T07:53:53.645Z,994.60
2023-03-13T07:54:53.637Z,994.60
2023-03-13T07:55:53.623Z,994.62
2023-03-13T07:56:53.715Z,994.59
2023-03-13T07:57:53.609Z,994.57
2023-03-13T07:58:53.609Z,994.54
2023-03-13T07:59:53.588Z,994.56
2023-03-13T08:00:53.573Z,994.47
2023-03-13T08:01:53.634Z,994.50
2023-03-13T08:02:53.633Z,994.47
2023-03-13T08:03:53.665Z,994.50
2023-03-13T08:04:53.597Z,994.51
2023-03-13T08:05:53.520Z,994.47
2023-03-13T08:06:53.521Z,994.48
2023-03-13T08:07:53.494Z,994.34
2023-03-13T08:08:53.598Z,994.38
2023-03-13T08:09:53.477Z,994.42
2023-03-13T08:10:53.465Z,994.33
2023-03-13T08:11:53.468Z,994.26
2023-03-13T08:12:53.433Z,994.24
2023-03-13T08:13:53.456Z,994.26
2023-03-13T08:14:53.417Z,994.29
2023-03-13T08:15:53.416Z,994.31
2023-03-13T08:16:53.481Z,994.36
2023-03-13T08:17:53.397Z,994.33
2023-03-13T08:18:53.382Z,994.34
2023-03-13T08:19:53.357Z,994.31
2023-03-13T08:20:53.364Z,994.32
2023-03-13T08:21:53.332Z,994.22
2023-03-13T08:22:53.352Z,994.24
2023-03-13T08:23:53.316Z,994.22
2023-03-13T08:24:53.321Z,994.26
2023-03-13T08:25:53.292Z,994.06
2023-03-13T08:26:53.280Z,994.19
2023-03-13T08:27:53.271Z,994.20
2023-03-13T08:28:53.253Z,994.10
2023-03-13T08:29:53.246Z,994.18
2023-03-13T08:30:53.298Z,994.13
2023-03-13T08:31:53.226Z,994.13
2023-03-13T08:32:53.253Z,994.13
2023-03-13T08:33:53.205Z,994.06
2023-03-13T08:34:53.249Z,994.11
2023-03-13T08:35:53.252Z,994.01
2023-03-13T08:36:53.166Z,994.01
2023-03-13T08:37:53.160Z,994.04
2023-03-13T08:38:53.163Z,994.00
2023-03-13T08:39:53.287Z,994.00
2023-03-13T08:40:53.158Z,994.00
2023-03-13T08:41:53.118Z,993.96
2023-03-13T08:42:53.103Z,993.86
2023-03-13T08:43:53.097Z,993.90
2023-03-13T08:44:53.188Z,993.80
2023-03-13T08:45:53.123Z,993.95
2023-03-13T08:46:53.071Z,993.90
2023-03-13T08:47:53.052Z,993.89
2023-03-13T08:48:53.047Z,993.94
2023-03-13T08:49:53.052Z,993.91
2023-03-13T08:50:53.042Z,993.97
2023-03-13T08:51:53.006Z,993.95
2023-03-13T08:52:53.006Z,993.90
2023-03-13T08:53:52.991Z,993.78
2023-03-13T08:54:53.004Z,993.73
2023-03-13T08:55:52.971Z,993.80
2023-03-13T08:56:53.030Z,993.73
2023-03-13T08:57:52.963Z,993.78
2023-03-13T08:58:53.057Z,993.79
2023-03-13T08:59:52.944Z,993.75
2023-03-13T09:00:52.907Z,993.75
2023-03-13T09:01:52.908Z,993.69
2023-03-13T09:02:52.953Z,993.69
2023-03-13T09:03:53.047Z,993.64
2023-03-13T09:04:52.864Z,993.65
2023-03-13T09:05:56.246Z,993.60
2023-03-13T09:06:52.869Z,993.64
2023-03-13T09:07:52.840Z,993.66
2023-03-13T09:08:52.971Z,993.61
2023-03-13T09:09:52.840Z,993.58
2023-03-13T09:10:52.856Z,993.56
2023-03-13T09:11:52.804Z,993.58
2023-03-13T09:12:52.780Z,993.50
2023-03-13T09:13:52.773Z,993.55
2023-03-13T09:14:52.761Z,993.50
2023-03-13T09:15:52.808Z,993.50
2023-03-13T09:16:52.738Z,993.52
2023-03-13T09:17:52.751Z,993.50
2023-03-13T09:18:52.904Z,993.46
2023-03-13T09:20:00.032Z,993.49
2023-03-13T09:20:53.704Z,993.44
2023-03-13T09:21:52.683Z,993.43
2023-03-13T09:22:52.750Z,993.42
2023-03-13T09:23:52.678Z,993.47
2023-03-13T09:24:52.649Z,993.51
2023-03-13T09:25:52.641Z,993.52
2023-03-13T09:27:01.049Z,993.45
2023-03-13T09:27:53.617Z,993.55
2023-03-13T09:28:52.863Z,993.50
2023-03-13T09:29:52.597Z,993.47
2023-03-13T09:30:52.596Z,993.47
2023-03-13T09:31:52.575Z,993.50
2023-03-13T09:32:52.609Z,993.41
2023-03-13T09:33:52.567Z,993.47
2023-03-13T09:34:52.546Z,993.41
2023-03-13T09:35:52.560Z,993.43
2023-03-13T09:36:52.524Z,993.51
2023-03-13T09:37:52.506Z,993.51
2023-03-13T09:38:52.628Z,993.53
2023-03-13T09:39:52.509Z,993.51
2023-03-13T09:41:05.423Z,993.56
2023-03-13T09:41:53.638Z,993.44
2023-03-13T09:42:52.452Z,993.48
2023-03-13T09:43:52.460Z,993.51
2023-03-13T09:44:52.431Z,993.50
2023-03-13T09:45:52.426Z,993.46
2023-03-13T09:46:52.563Z,993.43
2023-03-13T09:47:52.399Z,993.45
2023-03-13T09:48:52.440Z,993.41
2023-03-13T09:49:52.395Z,993.47
2023-03-13T09:50:52.365Z,993.40
2023-03-13T09:51:52.352Z,993.44
2023-03-13T09:52:52.349Z,993.34
2023-03-13T09:53:52.349Z,993.33
2023-03-13T09:54:52.349Z,993.29
2023-03-13T09:55:52.326Z,993.28
2023-03-13T09:56:52.311Z,993.27
2023-03-13T09:57:52.283Z,993.20
2023-03-13T09:58:52.384Z,993.28
2023-03-13T09:59:52.263Z,993.24
2023-03-13T10:00:52.426Z,993.19
2023-03-13T10:01:52.362Z,993.29
2023-03-13T10:02:52.232Z,993.20
2023-03-13T10:03:52.223Z,993.19
2023-03-13T10:04:52.299Z,993.22
2023-03-13T10:05:52.199Z,993.16
2023-03-13T10:07:42.322Z,993.18
2023-03-13T10:08:42.309Z,993.24
2023-03-13T10:09:42.301Z,993.23
2023-03-13T10:10:42.323Z,993.19
2023-03-13T10:11:42.294Z,993.20
2023-03-13T10:12:42.266Z,993.22
2023-03-13T10:13:42.255Z,993.23
2023-03-13T10:14:42.242Z,993.23
2023-03-13T10:15:42.302Z,993.21
2023-03-13T10:16:42.311Z,993.29
2023-03-13T10:17:42.219Z,993.14
2023-03-13T10:18:42.197Z,993.18
2023-03-13T10:19:42.202Z,993.21
2023-03-13T10:20:42.216Z,993.21
2023-03-13T10:21:42.158Z,993.27
2023-03-13T10:22:43.037Z,993.18
2023-03-13T10:23:42.144Z,993.21
2023-03-13T10:24:42.135Z,993.11
2023-03-13T10:25:42.131Z,993.21
2023-03-13T10:26:42.148Z,993.09
2023-03-13T10:27:42.201Z,993.21
2023-03-13T10:28:42.089Z,993.00
2023-03-13T10:29:42.086Z,993.12
2023-03-13T10:30:42.143Z,993.10
2023-03-13T10:31:42.116Z,993.12
2023-03-13T10:32:43.061Z,993.07
2023-03-13T10:33:42.053Z,993.01
2023-03-13T10:34:42.552Z,992.94
2023-03-13T10:35:42.076Z,992.98
2023-03-13T10:36:41.995Z,993.01
2023-03-13T10:37:41.986Z,992.99
2023-03-13T10:38:41.978Z,992.94
2023-03-13T10:39:43.620Z,992.93
2023-03-13T10:40:41.990Z,992.89
2023-03-13T10:41:41.994Z,992.89
2023-03-13T10:42:41.945Z,992.89
2023-03-13T10:43:41.925Z,992.78
2023-03-13T10:44:41.918Z,992.94
2023-03-13T10:45:41.920Z,992.91
2023-03-13T10:46:41.978Z,992.89
2023-03-13T10:47:41.874Z,992.79
2023-03-13T10:48:41.868Z,992.79
2023-03-13T10:49:41.867Z,992.81
2023-03-13T10:50:41.847Z,992.75
2023-03-13T10:51:42.538Z,992.79
2023-03-13T10:52:41.823Z,992.67
2023-03-13T10:53:41.820Z,992.73
2023-03-13T10:54:41.793Z,992.66
2023-03-13T10:55:41.798Z,992.70
2023-03-13T10:56:44.537Z,992.70
2023-03-13T10:57:41.763Z,992.73
2023-03-13T10:58:41.774Z,992.70
2023-03-13T10:59:41.745Z,992.74
2023-03-13T11:00:41.753Z,992.58
2023-03-13T11:01:41.721Z,992.61
2023-03-13T11:02:41.877Z,992.59
2023-03-13T11:03:41.766Z,992.61
2023-03-13T11:04:41.710Z,992.63
2023-03-13T11:05:41.678Z,992.56
2023-03-13T11:06:41.670Z,992.56
2023-03-13T11:07:41.654Z,992.40
2023-03-13T11:08:41.735Z,992.44
2023-03-13T11:09:42.551Z,992.54
2023-03-13T11:10:41.633Z,992.47
2023-03-13T11:11:42.550Z,992.38
2023-03-13T11:12:41.603Z,992.44
2023-03-13T11:13:41.588Z,992.52
2023-03-13T11:14:41.659Z,992.39
2023-03-13T11:15:41.570Z,992.35
2023-03-13T11:16:41.610Z,992.33
2023-03-13T11:17:41.553Z,992.38
2023-03-13T11:18:41.559Z,992.35
2023-03-13T11:19:41.539Z,992.38
2023-03-13T11:20:41.507Z,992.43
2023-03-13T11:21:41.502Z,992.25
2023-03-13T11:22:41.497Z,992.21
2023-03-13T11:23:41.477Z,992.34
2023-03-13T11:24:41.485Z,992.06
2023-03-13T11:25:41.468Z,992.13
2023-03-13T11:26:41.473Z,992.08
2023-03-13T11:27:41.512Z,991.97
2023-03-13T11:28:41.435Z,992.17
2023-03-13T11:29:41.443Z,992.12
2023-03-13T11:30:41.414Z,992.21
2023-03-13T11:31:41.457Z,992.19
2023-03-13T11:32:41.421Z,992.09
2023-03-13T11:33:42.074Z,992.08
2023-03-13T11:34:41.357Z,991.97
2023-03-13T11:35:42.081Z,992.08
2023-03-13T11:36:41.328Z,992.11
2023-03-13T11:37:42.521Z,992.04
2023-03-13T11:38:41.327Z,992.08
2023-03-13T11:39:43.018Z,992.01
2023-03-13T11:40:41.290Z,992.06
2023-03-13T11:41:44.100Z,992.10
2023-03-13T11:42:41.281Z,992.03
2023-03-13T11:43:42.455Z,992.00
2023-03-13T11:44:41.400Z,992.03
2023-03-13T11:45:41.308Z,992.05
2023-03-13T11:46:42.285Z,992.11
2023-03-13T11:47:41.216Z,992.10
2023-03-13T11:48:42.135Z,992.04
2023-03-13T11:49:41.198Z,991.97
2023-03-13T11:50:41.169Z,991.94
2023-03-13T11:51:41.273Z,992.10
2023-03-13T11:52:41.257Z,992.13
2023-03-13T11:53:41.161Z,991.98
2023-03-13T11:54:41.127Z,992.04
2023-03-13T11:55:41.118Z,992.05
2023-03-13T11:56:41.114Z,992.08
2023-03-13T11:57:41.117Z,991.98
2023-03-13T11:58:41.081Z,991.98
2023-03-13T11:59:41.073Z,991.99
2023-03-13T12:00:41.140Z,991.99
2023-03-13T12:01:41.050Z,991.98
2023-03-13T12:02:41.232Z,992.06
2023-03-13T12:03:41.128Z,992.05
2023-03-13T12:04:41.110Z,991.89
2023-03-13T12:05:41.037Z,991.89
2023-03-13T12:06:40.995Z,991.98
2023-03-13T12:07:41.004Z,991.95
2023-03-13T12:08:40.984Z,991.94
2023-03-13T12:09:41.106Z,991.98
2023-03-13T12:10:40.943Z,991.94
2023-03-13T12:11:40.942Z,991.95
2023-03-13T12:12:40.944Z,991.89
2023-03-13T12:13:40.937Z,991.93
2023-03-13T12:14:40.923Z,991.99
2023-03-13T12:15:40.908Z,991.86
2023-03-13T12:16:41.055Z,992.05
2023-03-13T12:17:40.927Z,991.94
2023-03-13T12:18:40.889Z,991.93
2023-03-13T12:19:40.879Z,991.79
2023-03-13T12:20:40.836Z,991.87
2023-03-13T12:21:41.619Z,991.84
2023-03-13T12:22:40.829Z,991.93
2023-03-13T12:23:40.835Z,991.85
2023-03-13T12:24:40.796Z,991.73
2023-03-13T12:25:40.864Z,991.74